Time;durP1;ratioP1;P1;durP2;ratioP2;P2;SDS_P1;SDS_P2;PMS_P1;PMS_P2;Temp;Humidity;BMP_temperature;BMP_pressure;BME280_temperature;BME280_humidity;BME280_pressure;Samples;Min_cycle;Max_cycle;Signal;HPM_P1;HPM_P2
2022/12/11 00:00:19;;;;;;;16.10;8.93;;;;;;;;;;4737191;30;20052;-70
2022/12/11 00:02:45;;;;;;;8.32;6.32;;;;;;;;;;4736845;30;20048;-70
2022/12/11 00:05:12;;;;;;;8.57;6.35;;;;;;;;;;4737191;30;20056;-70
2022/12/11 00:07:38;;;;;;;16.08;7.97;;;;;;;;;;4736457;30;20125;-70
2022/12/11 00:10:04;;;;;;;10.18;6.80;;;;;;;;;;4735904;30;20060;-70
2022/12/11 00:12:31;;;;;;;10.32;6.47;;;;;;;;;;4736586;30;20044;-70
2022/12/11 00:14:57;;;;;;;9.95;7.00;;;;;;;;;;4736544;30;20071;-70
2022/12/11 00:17:23;;;;;;;8.48;7.03;;;;;;;;;;4736551;30;20048;-70
2022/12/11 00:19:49;;;;;;;9.60;6.80;;;;;;;;;;4736118;30;20060;-70
2022/12/11 00:22:15;;;;;;;8.07;6.25;;;;;;;;;;4736351;30;20083;-70
2022/12/11 00:24:41;;;;;;;9.00;6.72;;;;;;;;;;4736408;30;20056;-70
2022/12/11 00:27:08;;;;;;;9.98;6.38;;;;;;;;;;4736107;30;20047;-70
2022/12/11 00:29:34;;;;;;;9.15;6.30;;;;;;;;;;4736077;30;20052;-70
2022/12/11 00:32:00;;;;;;;8.57;6.20;;;;;;;;;;4736035;30;20041;-70
2022/12/11 00:34:26;;;;;;;7.95;5.88;;;;;;;;;;4736319;30;20106;-70
2022/12/11 00:36:52;;;;;;;8.18;5.95;;;;;;;;;;4735846;30;20528;-70
2022/12/11 00:39:18;;;;;;;11.07;6.35;;;;;;;;;;4736172;30;20083;-70
2022/12/11 00:41:44;;;;;;;8.18;5.88;;;;;;;;;;4735913;30;20048;-70
2022/12/11 00:44:11;;;;;;;10.20;6.70;;;;;;;;;;4735919;30;20110;-70
2022/12/11 00:46:37;;;;;;;9.88;7.03;;;;;;;;;;4736271;30;20060;-70
2022/12/11 00:49:03;;;;;;;10.07;6.80;;;;;;;;;;4735313;30;20444;-70
2022/12/11 00:51:29;;;;;;;8.55;5.85;;;;;;;;;;4736200;30;20449;-70
2022/12/11 00:53:55;;;;;;;8.98;5.97;;;;;;;;;;4736559;30;20110;-70
2022/12/11 00:56:22;;;;;;;7.95;6.13;;;;;;;;;;4736663;30;20126;-70
2022/12/11 00:58:48;;;;;;;8.40;6.53;;;;;;;;;;4736255;30;20091;-70
2022/12/11 01:01:16;;;;;;;8.63;6.70;;;;;;;;;;4736029;30;20536;-70
2022/12/11 01:03:42;;;;;;;13.68;7.45;;;;;;;;;;4736308;30;20402;-70
2022/12/11 01:06:12;;;;;;;8.57;6.75;;;;;;;;;;4736262;30;20040;-70
2022/12/11 01:08:38;;;;;;;10.30;6.60;;;;;;;;;;4735864;30;20055;-69
2022/12/11 01:11:07;;;;;;;9.38;6.38;;;;;;;;;;4736172;30;20044;-70
2022/12/11 01:13:33;;;;;;;8.85;6.25;;;;;;;;;;4736595;30;20052;-70
2022/12/11 01:15:59;;;;;;;10.68;7.32;;;;;;;;;;4735937;30;20046;-70
2022/12/11 01:18:26;;;;;;;10.02;6.65;;;;;;;;;;4736080;30;20061;-70
2022/12/11 01:20:53;;;;;;;11.10;5.93;;;;;;;;;;4736158;30;20098;-70
2022/12/11 01:23:19;;;;;;;10.35;6.82;;;;;;;;;;4738712;30;20110;-70
2022/12/11 01:25:45;;;;;;;8.90;6.35;;;;;;;;;;4739345;30;20044;-70
2022/12/11 01:28:11;;;;;;;8.63;5.85;;;;;;;;;;4739563;30;20083;-70
2022/12/11 01:30:37;;;;;;;8.95;6.53;;;;;;;;;;4739255;30;20500;-70
2022/12/11 01:33:03;;;;;;;8.13;6.13;;;;;;;;;;4740247;30;20076;-70
2022/12/11 01:35:30;;;;;;;10.73;7.20;;;;;;;;;;4739154;30;20052;-70
2022/12/11 01:37:56;;;;;;;10.93;6.68;;;;;;;;;;4738979;30;20049;-70
2022/12/11 01:40:22;;;;;;;10.00;6.00;;;;;;;;;;4738978;30;20060;-70
2022/12/11 01:42:48;;;;;;;9.50;5.78;;;;;;;;;;4739622;30;20524;-70
2022/12/11 01:45:28;;;;;;;8.20;6.00;;;;;;;;;;4739495;30;20052;-70
2022/12/11 01:47:57;;;;;;;9.07;6.40;;;;;;;;;;4739311;30;20064;-70
2022/12/11 01:50:24;;;;;;;9.90;6.35;;;;;;;;;;4739491;30;20049;-70
2022/12/11 01:52:50;;;;;;;8.07;5.80;;;;;;;;;;4739051;30;20110;-70
2022/12/11 01:55:17;;;;;;;9.15;6.03;;;;;;;;;;4739315;30;20141;-70
2022/12/11 01:57:44;;;;;;;7.45;5.82;;;;;;;;;;4739048;30;20182;-70
2022/12/11 02:00:11;;;;;;;7.68;5.22;;;;;;;;;;4738679;30;20433;-70
2022/12/11 02:02:37;;;;;;;8.57;5.72;;;;;;;;;;4739078;30;20082;-70
2022/12/11 02:05:04;;;;;;;8.98;6.03;;;;;;;;;;4739433;30;20490;-70
2022/12/11 02:07:32;;;;;;;6.60;5.20;;;;;;;;;;4738453;30;20521;-70
2022/12/11 02:09:58;;;;;;;7.22;5.18;;;;;;;;;;4738579;30;20080;-70
2022/12/11 02:12:39;;;;;;;6.38;4.90;;;;;;;;;;4738939;30;20073;-70
2022/12/11 02:15:23;;;;;;;5.80;4.97;;;;;;;;;;4738790;30;20076;-70
2022/12/11 02:17:52;;;;;;;7.90;5.22;;;;;;;;;;4739038;30;20052;-70
2022/12/11 02:20:25;;;;;;;6.20;5.00;;;;;;;;;;4738969;30;20060;-70
2022/12/11 02:23:10;;;;;;;7.07;4.93;;;;;;;;;;4738520;30;20063;-70
2022/12/11 02:26:14;;;;;;;8.25;5.43;;;;;;;;;;4738308;30;20048;-70
2022/12/11 02:28:57;;;;;;;9.05;5.40;;;;;;;;;;4684063;30;20092;-70
2022/12/11 02:31:27;;;;;;;7.70;6.07;;;;;;;;;;4683719;30;20510;-70
2022/12/11 02:34:08;;;;;;;7.47;5.70;;;;;;;;;;4716424;30;20045;-70
2022/12/11 02:36:37;;;;;;;9.45;6.75;;;;;;;;;;4738274;30;20072;-70
2022/12/11 02:39:04;;;;;;;12.15;8.57;;;;;;;;;;4738522;30;20088;-70
2022/12/11 02:41:30;;;;;;;10.48;7.50;;;;;;;;;;4738312;30;20060;-70
2022/12/11 02:43:57;;;;;;;9.55;6.32;;;;;;;;;;4738526;30;20049;-70
2022/12/11 02:46:24;;;;;;;8.90;6.25;;;;;;;;;;4737720;30;20052;-70
2022/12/11 02:48:51;;;;;;;11.18;7.25;;;;;;;;;;4738219;30;20052;-70
2022/12/11 02:51:18;;;;;;;9.02;6.45;;;;;;;;;;4737959;30;20102;-70
2022/12/11 02:53:44;;;;;;;6.75;5.20;;;;;;;;;;4737668;30;20075;-69
2022/12/11 02:56:13;;;;;;;8.35;5.55;;;;;;;;;;4737492;30;20055;-70
2022/12/11 02:58:45;;;;;;;10.25;5.60;;;;;;;;;;4737399;30;20056;-70
2022/12/11 03:01:11;;;;;;;7.70;5.55;;;;;;;;;;4737945;30;20056;-70
2022/12/11 03:03:37;;;;;;;8.30;5.82;;;;;;;;;;4737974;30;20059;-70
2022/12/11 03:06:04;;;;;;;9.13;6.00;;;;;;;;;;4737780;30;20048;-70
2022/12/11 03:08:30;;;;;;;8.02;5.72;;;;;;;;;;4737356;30;20044;-70
2022/12/11 03:10:56;;;;;;;10.02;7.10;;;;;;;;;;4737247;30;20513;-70
2022/12/11 03:13:22;;;;;;;11.15;6.95;;;;;;;;;;4738039;30;20080;-70
2022/12/11 03:16:00;;;;;;;7.55;5.80;;;;;;;;;;4737163;30;20055;-70
2022/12/11 03:18:40;;;;;;;10.80;6.25;;;;;;;;;;4737671;30;20067;-70
2022/12/11 03:21:20;;;;;;;9.68;5.65;;;;;;;;;;4737099;30;20523;-70
2022/12/11 03:23:52;;;;;;;6.95;5.63;;;;;;;;;;4737016;30;20141;-70
2022/12/11 03:26:19;;;;;;;6.22;4.78;;;;;;;;;;4737425;30;20051;-70
2022/12/11 03:29:12;;;;;;;5.90;4.60;;;;;;;;;;4737382;30;20056;-70
2022/12/11 03:31:59;;;;;;;7.38;5.70;;;;;;;;;;4734574;30;20053;-70
2022/12/11 03:34:33;;;;;;;8.10;5.85;;;;;;;;;;4737436;30;20044;-70
2022/12/11 03:37:00;;;;;;;7.55;5.47;;;;;;;;;;4736843;30;20044;-70
2022/12/11 03:39:29;;;;;;;7.18;5.45;;;;;;;;;;4737013;30;20098;-70
2022/12/11 03:41:55;;;;;;;7.07;5.10;;;;;;;;;;4737103;30;20079;-70
2022/12/11 03:44:23;;;;;;;9.40;4.93;;;;;;;;;;4737342;30;20056;-70
2022/12/11 03:46:50;;;;;;;7.93;5.35;;;;;;;;;;4736792;30;20065;-70
2022/12/11 03:49:17;;;;;;;8.43;5.68;;;;;;;;;;4737204;30;20045;-70
2022/12/11 03:51:44;;;;;;;8.00;5.22;;;;;;;;;;4737167;30;20061;-70
2022/12/11 03:54:11;;;;;;;6.97;5.22;;;;;;;;;;4737316;30;20040;-70
2022/12/11 03:56:39;;;;;;;8.63;5.13;;;;;;;;;;4737074;30;20107;-70
2022/12/11 03:59:05;;;;;;;7.65;5.75;;;;;;;;;;4737088;30;20087;-70
2022/12/11 04:01:31;;;;;;;7.10;5.10;;;;;;;;;;4737310;30;20057;-70
2022/12/11 04:03:57;;;;;;;8.80;5.60;;;;;;;;;;4737074;30;20132;-70
2022/12/11 04:06:23;;;;;;;7.57;5.18;;;;;;;;;;4736677;30;20052;-69
2022/12/11 04:08:49;;;;;;;9.70;5.47;;;;;;;;;;4736525;30;20553;-70
2022/12/11 04:11:34;;;;;;;7.15;5.10;;;;;;;;;;4737032;30;20079;-69
2022/12/11 04:16:51;;;;;;;7.97;5.57;;;;;;;;;;4736331;30;20461;-69
2022/12/11 04:24:58;;;;;;;6.43;4.43;;;;;;;;;;4673489;30;20400;-69
2022/12/11 04:30:10;;;;;;;12.50;7.80;;;;;;;;;;4736137;30;20182;-69
2022/12/11 04:32:37;;;;;;;10.38;7.10;;;;;;;;;;4736394;30;20075;-70
2022/12/11 04:35:03;;;;;;;8.30;6.03;;;;;;;;;;4736551;30;20053;-70
2022/12/11 04:37:29;;;;;;;6.93;4.88;;;;;;;;;;4736148;30;20048;-69
2022/12/11 04:39:55;;;;;;;7.20;4.22;;;;;;;;;;4736436;30;20053;-69
2022/12/11 04:42:21;;;;;;;6.75;4.68;;;;;;;;;;4736333;30;20521;-69
2022/12/11 04:44:48;;;;;;;8.95;5.22;;;;;;;;;;4736188;30;20045;-69
2022/12/11 04:47:14;;;;;;;8.98;5.47;;;;;;;;;;4735805;30;20537;-69
2022/12/11 04:49:40;;;;;;;6.88;4.97;;;;;;;;;;4736039;30;20080;-69
2022/12/11 04:52:06;;;;;;;9.10;6.43;;;;;;;;;;4735901;30;20056;-70
2022/12/11 04:54:32;;;;;;;8.35;5.70;;;;;;;;;;4735825;30;20106;-69
2022/12/11 04:56:58;;;;;;;7.95;5.43;;;;;;;;;;4738678;30;20541;-70
2022/12/11 04:59:24;;;;;;;26.05;13.05;;;;;;;;;;4741717;30;20056;-69
2022/12/11 05:01:51;;;;;;;17.65;11.13;;;;;;;;;;4741844;30;20128;-69
2022/12/11 05:04:17;;;;;;;13.98;9.80;;;;;;;;;;4741887;30;20498;-69
2022/12/11 05:06:43;;;;;;;14.35;8.93;;;;;;;;;;4741686;30;20047;-69
2022/12/11 05:09:12;;;;;;;14.23;9.02;;;;;;;;;;4742098;30;20048;-69
2022/12/11 05:11:38;;;;;;;11.50;8.35;;;;;;;;;;4742103;30;20045;-69
2022/12/11 05:14:04;;;;;;;13.27;9.88;;;;;;;;;;4742057;30;20048;-69
2022/12/11 05:16:30;;;;;;;17.52;11.70;;;;;;;;;;4741773;30;20065;-69
2022/12/11 05:18:56;;;;;;;14.25;8.82;;;;;;;;;;4741413;30;20064;-69
2022/12/11 05:21:23;;;;;;;6.45;5.10;;;;;;;;;;4741704;30;20075;-69
2022/12/11 05:23:49;;;;;;;6.82;5.22;;;;;;;;;;4741302;30;20044;-69
2022/12/11 05:26:16;;;;;;;9.23;5.90;;;;;;;;;;4741412;30;20114;-70
2022/12/11 05:28:43;;;;;;;18.55;10.65;;;;;;;;;;4742197;30;20052;-70
2022/12/11 05:31:16;;;;;;;24.33;15.40;;;;;;;;;;4741374;30;20079;-70
2022/12/11 05:33:43;;;;;;;20.52;13.93;;;;;;;;;;4741678;30;20048;-70
2022/12/11 05:36:13;;;;;;;17.85;12.30;;;;;;;;;;4741367;30;20501;-69
2022/12/11 05:38:39;;;;;;;14.88;9.20;;;;;;;;;;4741131;30;20056;-69
2022/12/11 05:41:06;;;;;;;11.63;7.75;;;;;;;;;;4741287;30;20501;-70
2022/12/11 05:43:33;;;;;;;11.43;7.22;;;;;;;;;;4741820;30;20056;-70
2022/12/11 05:46:31;;;;;;;11.38;7.32;;;;;;;;;;4741277;30;20106;-70
2022/12/11 05:48:59;;;;;;;8.50;5.30;;;;;;;;;;4711912;30;20574;-70
2022/12/11 05:51:25;;;;;;;7.25;5.40;;;;;;;;;;4741737;30;20080;-70
2022/12/11 05:53:52;;;;;;;8.50;5.85;;;;;;;;;;4741553;30;20041;-69
2022/12/11 05:56:23;;;;;;;10.45;5.90;;;;;;;;;;4742056;30;20049;-69
2022/12/11 05:58:49;;;;;;;7.90;4.45;;;;;;;;;;4741683;30;20064;-69
2022/12/11 06:01:17;;;;;;;5.85;4.30;;;;;;;;;;4741841;30;20052;-69
2022/12/11 06:03:44;;;;;;;7.10;3.88;;;;;;;;;;4742241;30;20071;-70
2022/12/11 06:06:10;;;;;;;6.53;4.28;;;;;;;;;;4741734;30;20485;-70
2022/12/11 06:08:36;;;;;;;9.38;5.20;;;;;;;;;;4739795;30;20052;-70
2022/12/11 06:11:03;;;;;;;6.38;3.83;;;;;;;;;;4738791;30;20058;-70
2022/12/11 06:13:29;;;;;;;6.15;3.42;;;;;;;;;;4739115;30;20059;-70
2022/12/11 06:15:59;;;;;;;7.03;4.47;;;;;;;;;;4739178;30;20053;-70
2022/12/11 06:18:25;;;;;;;4.05;3.22;;;;;;;;;;4738906;30;20056;-69
2022/12/11 06:20:51;;;;;;;5.53;3.20;;;;;;;;;;4738827;30;20110;-70
2022/12/11 06:23:17;;;;;;;5.90;3.78;;;;;;;;;;4738436;30;20052;-70
2022/12/11 06:25:43;;;;;;;6.75;3.05;;;;;;;;;;4738534;30;20045;-70
2022/12/11 06:28:10;;;;;;;4.43;3.42;;;;;;;;;;4738806;30;20048;-70
2022/12/11 06:30:36;;;;;;;4.32;3.10;;;;;;;;;;4738422;30;20041;-70
2022/12/11 06:33:03;;;;;;;4.65;3.20;;;;;;;;;;4738531;30;20119;-70
2022/12/11 06:35:29;;;;;;;3.60;2.88;;;;;;;;;;4737247;30;20401;-70
2022/12/11 06:37:55;;;;;;;2.85;2.20;;;;;;;;;;4737992;30;20049;-70
2022/12/11 06:40:21;;;;;;;6.90;3.05;;;;;;;;;;4738961;30;20079;-70
2022/12/11 06:42:47;;;;;;;4.05;2.70;;;;;;;;;;4739273;30;20040;-70
2022/12/11 06:45:13;;;;;;;5.50;3.08;;;;;;;;;;4762804;30;20040;-68
2022/12/11 06:47:40;;;;;;;6.35;3.33;;;;;;;;;;4765706;30;20083;-70
2022/12/11 06:50:06;;;;;;;8.32;4.72;;;;;;;;;;4774285;30;20077;-70
2022/12/11 06:52:32;;;;;;;5.43;3.30;;;;;;;;;;4773250;30;20126;-69
2022/12/11 06:54:58;;;;;;;6.72;3.90;;;;;;;;;;4773542;30;20054;-70
2022/12/11 06:57:25;;;;;;;4.50;2.92;;;;;;;;;;4769980;30;20048;-70
2022/12/11 06:59:51;;;;;;;4.55;2.85;;;;;;;;;;4764179;30;20082;-70
2022/12/11 07:02:18;;;;;;;4.28;2.72;;;;;;;;;;4757736;30;20052;-69
2022/12/11 07:04:44;;;;;;;6.13;2.95;;;;;;;;;;4762776;30;20075;-69
2022/12/11 07:07:10;;;;;;;4.18;2.90;;;;;;;;;;4755071;30;20082;-70
2022/12/11 07:09:37;;;;;;;5.13;2.53;;;;;;;;;;4754943;30;20052;-69
2022/12/11 07:12:04;;;;;;;4.90;2.75;;;;;;;;;;4755456;30;20040;-69
2022/12/11 07:14:30;;;;;;;3.90;2.78;;;;;;;;;;4758482;30;20055;-70
2022/12/11 07:16:56;;;;;;;3.70;2.60;;;;;;;;;;4760708;30;20516;-69
2022/12/11 07:19:23;;;;;;;5.10;3.00;;;;;;;;;;4759675;30;20066;-69
2022/12/11 07:21:49;;;;;;;4.00;2.90;;;;;;;;;;4766571;30;20048;-70
2022/12/11 07:24:15;;;;;;;5.63;2.40;;;;;;;;;;4755669;30;20051;-71
2022/12/11 07:26:41;;;;;;;6.13;4.20;;;;;;;;;;4771104;30;20132;-70
2022/12/11 07:29:07;;;;;;;6.43;4.43;;;;;;;;;;4771388;30;20053;-70
2022/12/11 07:31:34;;;;;;;7.32;4.03;;;;;;;;;;4771862;30;20419;-70
2022/12/11 07:34:02;;;;;;;7.53;3.28;;;;;;;;;;4772387;30;20040;-70
2022/12/11 07:36:28;;;;;;;5.72;3.88;;;;;;;;;;4772528;30;20054;-70
2022/12/11 07:38:55;;;;;;;5.60;3.55;;;;;;;;;;4772280;30;20090;-70
2022/12/11 07:41:22;;;;;;;7.60;4.10;;;;;;;;;;4772834;30;20048;-70
2022/12/11 07:43:48;;;;;;;5.07;3.80;;;;;;;;;;4772187;30;20051;-70
2022/12/11 07:46:20;;;;;;;5.97;3.50;;;;;;;;;;4772277;30;20048;-70
2022/12/11 07:48:46;;;;;;;3.97;3.00;;;;;;;;;;4772460;30;20047;-70
2022/12/11 07:51:21;;;;;;;4.20;2.78;;;;;;;;;;4772730;30;20058;-70
2022/12/11 07:53:48;;;;;;;4.18;2.70;;;;;;;;;;4772111;30;20539;-70
2022/12/11 07:56:15;;;;;;;2.42;1.75;;;;;;;;;;4772492;30;20052;-70
2022/12/11 07:58:42;;;;;;;3.10;2.13;;;;;;;;;;4772396;30;20071;-70
2022/12/11 08:01:12;;;;;;;4.65;2.55;;;;;;;;;;4772326;30;20043;-70
2022/12/11 08:03:38;;;;;;;4.82;2.60;;;;;;;;;;4772131;30;20047;-70
2022/12/11 08:06:04;;;;;;;6.82;3.95;;;;;;;;;;4772338;30;20040;-70
2022/12/11 08:08:30;;;;;;;11.45;6.35;;;;;;;;;;4772202;30;20075;-68
2022/12/11 08:11:00;;;;;;;13.60;7.22;;;;;;;;;;4772220;30;20113;-69
2022/12/11 08:13:26;;;;;;;11.68;7.32;;;;;;;;;;4772549;30;20040;-69
2022/12/11 08:15:52;;;;;;;18.90;11.00;;;;;;;;;;4772213;30;20054;-69
2022/12/11 08:18:18;;;;;;;10.32;5.20;;;;;;;;;;4761256;30;20080;-69
2022/12/11 08:20:45;;;;;;;9.43;5.13;;;;;;;;;;4753756;30;20082;-69
2022/12/11 08:23:11;;;;;;;7.78;4.63;;;;;;;;;;4753385;30;20052;-69
2022/12/11 08:25:37;;;;;;;8.43;4.68;;;;;;;;;;4753643;30;20048;-69
2022/12/11 08:28:03;;;;;;;6.78;3.95;;;;;;;;;;4753319;30;20071;-69
2022/12/11 08:30:31;;;;;;;8.95;5.57;;;;;;;;;;4753230;30;20055;-69
2022/12/11 08:32:58;;;;;;;11.43;5.65;;;;;;;;;;4752985;30;20052;-69
2022/12/11 08:35:24;;;;;;;8.15;5.65;;;;;;;;;;4753514;30;20122;-69
2022/12/11 08:37:50;;;;;;;11.45;6.45;;;;;;;;;;4753132;30;20135;-69
2022/12/11 08:40:16;;;;;;;12.75;6.43;;;;;;;;;;4754589;30;20116;-69
2022/12/11 08:42:45;;;;;;;32.30;15.05;;;;;;;;;;4753657;30;20102;-69
2022/12/11 08:45:11;;;;;;;15.90;9.50;;;;;;;;;;4752022;30;20044;-70
2022/12/11 08:47:37;;;;;;;26.05;13.18;;;;;;;;;;4753518;30;20525;-69
2022/12/11 08:50:04;;;;;;;25.00;13.45;;;;;;;;;;4753394;30;20198;-69
2022/12/11 08:52:33;;;;;;;22.70;12.95;;;;;;;;;;4752775;30;20064;-69
2022/12/11 08:54:59;;;;;;;25.42;14.93;;;;;;;;;;4752687;30;20087;-69
2022/12/11 08:57:27;;;;;;;28.45;15.57;;;;;;;;;;4752783;30;20076;-70
2022/12/11 08:59:53;;;;;;;33.30;16.67;;;;;;;;;;4752889;30;20106;-69
2022/12/11 09:02:19;;;;;;;36.85;19.27;;;;;;;;;;4753103;30;20064;-69
2022/12/11 09:04:45;;;;;;;20.40;11.40;;;;;;;;;;4752721;30;20054;-69
2022/12/11 09:07:11;;;;;;;18.65;10.05;;;;;;;;;;4752714;30;20055;-69
2022/12/11 09:09:37;;;;;;;13.65;7.95;;;;;;;;;;4752927;30;20048;-70
2022/12/11 09:12:03;;;;;;;16.65;9.43;;;;;;;;;;4752690;30;20052;-69
2022/12/11 09:14:30;;;;;;;17.38;10.77;;;;;;;;;;4752717;30;20055;-69
2022/12/11 09:16:56;;;;;;;17.20;10.43;;;;;;;;;;4752899;30;20105;-69
2022/12/11 09:19:22;;;;;;;24.00;12.10;;;;;;;;;;4752435;30;20056;-69
2022/12/11 09:21:48;;;;;;;20.65;10.23;;;;;;;;;;4753048;30;20052;-70
2022/12/11 09:24:14;;;;;;;21.45;12.20;;;;;;;;;;4753145;30;20052;-70
2022/12/11 09:26:41;;;;;;;25.83;14.35;;;;;;;;;;4753213;30;20037;-70
2022/12/11 09:29:07;;;;;;;29.55;17.33;;;;;;;;;;4753879;30;20492;-69
2022/12/11 09:31:35;;;;;;;30.98;17.75;;;;;;;;;;4753018;30;20044;-69
2022/12/11 09:34:02;;;;;;;32.15;16.05;;;;;;;;;;4753287;30;20083;-69
2022/12/11 09:36:29;;;;;;;30.52;16.02;;;;;;;;;;4753257;30;20508;-69
2022/12/11 09:38:55;;;;;;;25.80;13.48;;;;;;;;;;4753077;30;20076;-69
2022/12/11 09:41:21;;;;;;;22.67;12.30;;;;;;;;;;4755231;30;20067;-70
2022/12/11 09:44:03;;;;;;;19.83;10.63;;;;;;;;;;4755518;30;20125;-69
2022/12/11 09:46:29;;;;;;;21.17;11.80;;;;;;;;;;4756370;30;20064;-69
2022/12/11 09:48:56;;;;;;;19.42;11.48;;;;;;;;;;4756636;30;20147;-71
2022/12/11 09:51:25;;;;;;;19.63;10.98;;;;;;;;;;4756447;30;20048;-71
2022/12/11 09:53:52;;;;;;;20.75;11.85;;;;;;;;;;4755745;30;20560;-71
2022/12/11 09:56:23;;;;;;;15.75;9.70;;;;;;;;;;4756219;30;20052;-70
2022/12/11 09:59:10;;;;;;;17.85;9.00;;;;;;;;;;4756394;30;20052;-70
2022/12/11 10:01:39;;;;;;;15.77;9.30;;;;;;;;;;4755606;30;20093;-69
2022/12/11 10:04:13;;;;;;;15.52;8.77;;;;;;;;;;4756262;30;20130;-69
2022/12/11 10:06:39;;;;;;;16.00;8.65;;;;;;;;;;4756205;30;20052;-70
2022/12/11 10:09:08;;;;;;;16.83;9.13;;;;;;;;;;4756016;30;20079;-70
2022/12/11 10:11:54;;;;;;;27.25;13.85;;;;;;;;;;4755318;30;20044;-70
2022/12/11 10:14:25;;;;;;;37.53;17.73;;;;;;;;;;4756379;30;20044;-70
2022/12/11 10:16:53;;;;;;;33.00;16.27;;;;;;;;;;4755846;30;20067;-70
2022/12/11 10:19:26;;;;;;;25.30;12.95;;;;;;;;;;4756162;30;20072;-69
2022/12/11 10:21:52;;;;;;;26.17;13.30;;;;;;;;;;4755177;30;20052;-69
2022/12/11 10:24:27;;;;;;;24.58;13.25;;;;;;;;;;4755822;30;20198;-69
2022/12/11 10:26:56;;;;;;;25.65;13.40;;;;;;;;;;4755712;30;20055;-69
2022/12/11 10:29:23;;;;;;;25.70;12.90;;;;;;;;;;4755473;30;20051;-69
2022/12/11 10:31:58;;;;;;;23.40;13.77;;;;;;;;;;4755388;30;20519;-69
2022/12/11 10:34:27;;;;;;;41.80;23.48;;;;;;;;;;4755941;30;20137;-69
2022/12/11 10:36:54;;;;;;;39.08;21.90;;;;;;;;;;4755459;30;20052;-69
2022/12/11 10:39:21;;;;;;;27.67;15.38;;;;;;;;;;4755644;30;20044;-69
2022/12/11 10:41:52;;;;;;;15.60;8.55;;;;;;;;;;4755695;30;20067;-69
2022/12/11 10:44:19;;;;;;;10.95;6.25;;;;;;;;;;4755838;30;20133;-69
2022/12/11 10:46:47;;;;;;;21.90;12.93;;;;;;;;;;4755639;30;20125;-69
2022/12/11 10:49:27;;;;;;;45.63;24.05;;;;;;;;;;4755767;30;20534;-69
2022/12/11 10:52:00;;;;;;;46.38;22.23;;;;;;;;;;4755876;30;20058;-69
2022/12/11 10:54:31;;;;;;;60.30;27.00;;;;;;;;;;4754763;30;20040;-69
2022/12/11 10:56:57;;;;;;;41.30;20.38;;;;;;;;;;4755792;30;20048;-69
2022/12/11 10:59:25;;;;;;;21.13;10.75;;;;;;;;;;4755694;30;20043;-69
2022/12/11 11:01:51;;;;;;;10.65;6.13;;;;;;;;;;4755406;30;20574;-69
2022/12/11 11:04:24;;;;;;;8.45;5.00;;;;;;;;;;4755883;30;20127;-69
2022/12/11 11:07:11;;;;;;;8.32;4.70;;;;;;;;;;4755332;30;20060;-69
2022/12/11 11:09:38;;;;;;;8.07;4.22;;;;;;;;;;4756146;30;20058;-69
2022/12/11 11:12:05;;;;;;;6.47;3.60;;;;;;;;;;4755246;30;20044;-69
2022/12/11 11:14:31;;;;;;;8.00;4.60;;;;;;;;;;4755300;30;20044;-69
2022/12/11 11:16:57;;;;;;;5.75;3.90;;;;;;;;;;4755470;30;20040;-69
2022/12/11 11:19:30;;;;;;;6.63;3.65;;;;;;;;;;4755024;30;20109;-69
2022/12/11 11:21:57;;;;;;;8.48;4.20;;;;;;;;;;4755457;30;20048;-69
2022/12/11 11:24:26;;;;;;;4.38;2.80;;;;;;;;;;4755551;30;20070;-69
2022/12/11 11:26:52;;;;;;;2.78;1.88;;;;;;;;;;4754981;30;20056;-69
2022/12/11 11:29:25;;;;;;;3.25;2.00;;;;;;;;;;4755156;30;20044;-69
2022/12/11 11:31:51;;;;;;;3.03;1.90;;;;;;;;;;4755440;30;20131;-69
2022/12/11 11:34:24;;;;;;;2.47;1.50;;;;;;;;;;4754220;30;20052;-70
2022/12/11 11:36:59;;;;;;;15.65;11.07;;;;;;;;;;4754595;30;20055;-69
2022/12/11 11:39:35;;;;;;;115.70;72.68;;;;;;;;;;4754919;30;20040;-70
2022/12/11 11:42:06;;;;;;;16.17;11.15;;;;;;;;;;4755042;30;20071;-70
2022/12/11 11:44:36;;;;;;;6.88;4.47;;;;;;;;;;4755563;30;20051;-70
2022/12/11 11:47:10;;;;;;;8.55;4.65;;;;;;;;;;4754848;30;20125;-70
2022/12/11 11:49:52;;;;;;;6.82;4.63;;;;;;;;;;4754514;30;20125;-70
2022/12/11 11:52:28;;;;;;;7.90;4.95;;;;;;;;;;4754485;30;20052;-70
2022/12/11 11:55:02;;;;;;;6.32;3.60;;;;;;;;;;4754666;30;20071;-70
2022/12/11 11:57:34;;;;;;;3.95;2.47;;;;;;;;;;4754091;30;20044;-70
2022/12/11 12:00:16;;;;;;;2.95;2.17;;;;;;;;;;4754352;30;20158;-70
2022/12/11 12:02:42;;;;;;;3.80;2.70;;;;;;;;;;4754442;30;20055;-70
2022/12/11 12:05:12;;;;;;;4.18;2.72;;;;;;;;;;4753867;30;20036;-70
2022/12/11 12:07:44;;;;;;;4.57;3.08;;;;;;;;;;4753443;30;20417;-70
2022/12/11 12:10:16;;;;;;;5.07;2.80;;;;;;;;;;4753327;30;20040;-70
2022/12/11 12:12:46;;;;;;;4.25;2.20;;;;;;;;;;4753692;30;20134;-73
2022/12/11 12:15:22;;;;;;;2.78;2.00;;;;;;;;;;4754267;30;20052;-70
2022/12/11 12:17:51;;;;;;;3.13;1.77;;;;;;;;;;4754025;30;20101;-71
2022/12/11 12:20:22;;;;;;;3.35;1.33;;;;;;;;;;4754454;30;20040;-71
2022/12/11 12:22:57;;;;;;;2.20;1.63;;;;;;;;;;4754107;30;20060;-71
2022/12/11 12:25:26;;;;;;;1.98;1.30;;;;;;;;;;4753958;30;20062;-71
2022/12/11 12:28:13;;;;;;;1.95;0.90;;;;;;;;;;4753705;30;20047;-71
2022/12/11 12:31:00;;;;;;;0.75;0.70;;;;;;;;;;4754214;30;20183;-71
2022/12/11 12:33:40;;;;;;;2.17;1.05;;;;;;;;;;4753810;30;20052;-71
2022/12/11 12:36:17;;;;;;;1.50;0.93;;;;;;;;;;4754118;30;20120;-71
2022/12/11 12:38:52;;;;;;;1.85;1.08;;;;;;;;;;4753717;30;20056;-71
2022/12/11 12:41:32;;;;;;;2.38;1.30;;;;;;;;;;4753609;30;20520;-71
2022/12/11 12:44:17;;;;;;;2.60;1.05;;;;;;;;;;4753852;30;20076;-71
2022/12/11 12:46:56;;;;;;;1.38;0.90;;;;;;;;;;4753995;30;20125;-71
2022/12/11 12:49:42;;;;;;;1.33;0.80;;;;;;;;;;4754042;30;20055;-71
2022/12/11 12:52:17;;;;;;;0.75;0.50;;;;;;;;;;4753694;30;20133;-71
2022/12/11 12:55:12;;;;;;;0.65;0.50;;;;;;;;;;4754378;30;20052;-71
2022/12/11 12:57:32;;;;;;;0.52;0.50;;;;;;;;;;4756547;30;20108;-70
2022/12/11 12:59:58;;;;;;;0.77;0.40;;;;;;;;;;4758818;30;20492;-70
2022/12/11 13:02:24;;;;;;;0.90;0.47;;;;;;;;;;4740371;30;20063;-70
2022/12/11 13:05:02;;;;;;;0.90;0.50;;;;;;;;;;4760794;30;20448;-70
2022/12/11 13:07:30;;;;;;;1.02;0.63;;;;;;;;;;4758472;30;20105;-70
2022/12/11 13:10:07;;;;;;;0.90;0.60;;;;;;;;;;4752548;30;20044;-70
2022/12/11 13:12:44;;;;;;;1.55;0.98;;;;;;;;;;4752858;30;20056;-70
2022/12/11 13:15:43;;;;;;;2.47;1.25;;;;;;;;;;4766257;30;20063;-70
2022/12/11 13:18:28;;;;;;;1.92;1.00;;;;;;;;;;4760244;30;20056;-70
2022/12/11 13:20:54;;;;;;;1.10;0.65;;;;;;;;;;4773954;30;20052;-70
2022/12/11 13:23:28;;;;;;;3.88;0.60;;;;;;;;;;4772951;30;20052;-70
2022/12/11 13:25:55;;;;;;;1.15;0.77;;;;;;;;;;4773866;30;20035;-70
2022/12/11 13:28:29;;;;;;;0.75;0.55;;;;;;;;;;4773688;30;20618;-70
2022/12/11 13:31:01;;;;;;;0.70;0.70;;;;;;;;;;4773608;30;20039;-70
2022/12/11 13:33:29;;;;;;;0.60;0.50;;;;;;;;;;4753412;30;20052;-70
2022/12/11 13:36:10;;;;;;;0.40;0.30;;;;;;;;;;4755723;30;20036;-71
2022/12/11 13:38:45;;;;;;;0.80;0.55;;;;;;;;;;4756051;30;20123;-70
2022/12/11 13:41:12;;;;;;;1.75;0.60;;;;;;;;;;4757760;30;20082;-70
2022/12/11 13:43:41;;;;;;;0.90;0.68;;;;;;;;;;4756145;30;20052;-70
2022/12/11 13:46:12;;;;;;;7.32;2.10;;;;;;;;;;4755165;30;20051;-70
2022/12/11 13:48:45;;;;;;;7.00;2.10;;;;;;;;;;4755970;30;20067;-70
2022/12/11 13:51:19;;;;;;;2.85;1.00;;;;;;;;;;4755301;30;20084;-70
2022/12/11 13:53:45;;;;;;;2.85;0.90;;;;;;;;;;4755518;30;20078;-70
2022/12/11 13:56:21;;;;;;;14.63;3.90;;;;;;;;;;4755652;30;20054;-73
2022/12/11 13:58:48;;;;;;;24.17;5.97;;;;;;;;;;4755250;30;20087;-70
2022/12/11 14:01:21;;;;;;;23.23;6.82;;;;;;;;;;4755142;30;20066;-70
2022/12/11 14:03:57;;;;;;;23.42;8.32;;;;;;;;;;4756025;30;20048;-70
2022/12/11 14:06:24;;;;;;;7.85;3.38;;;;;;;;;;4755111;30;20056;-70
2022/12/11 14:08:53;;;;;;;2.83;1.50;;;;;;;;;;4755280;30;20044;-70
2022/12/11 14:11:26;;;;;;;2.60;1.90;;;;;;;;;;4755579;30;20051;-69
2022/12/11 14:13:53;;;;;;;2.35;1.10;;;;;;;;;;4755255;30;20588;-70
2022/12/11 14:16:21;;;;;;;1.83;1.27;;;;;;;;;;4755083;30;20179;-70
2022/12/11 14:18:48;;;;;;;3.97;1.70;;;;;;;;;;4756016;30;20063;-70
2022/12/11 14:21:19;;;;;;;1.20;0.85;;;;;;;;;;4755394;30;20052;-70
2022/12/11 14:23:51;;;;;;;1.13;0.68;;;;;;;;;;4755453;30;20048;-70
2022/12/11 14:26:20;;;;;;;4.50;1.60;;;;;;;;;;4755019;30;20048;-70
2022/12/11 14:28:46;;;;;;;4.00;1.75;;;;;;;;;;4754836;30;20508;-70
2022/12/11 14:31:15;;;;;;;1.40;0.77;;;;;;;;;;4754872;30;20135;-70
2022/12/11 14:33:43;;;;;;;6.40;3.20;;;;;;;;;;4755015;30;20601;-70
2022/12/11 14:36:09;;;;;;;3.97;2.67;;;;;;;;;;4755080;30;20081;-70
2022/12/11 14:38:43;;;;;;;3.13;2.05;;;;;;;;;;4755263;30;20043;-70
2022/12/11 14:41:16;;;;;;;8.63;5.70;;;;;;;;;;4755289;30;20056;-70
2022/12/11 14:43:45;;;;;;;8.02;4.25;;;;;;;;;;4757135;30;20133;-70
2022/12/11 14:46:16;;;;;;;10.82;5.70;;;;;;;;;;4764260;30;20044;-70
2022/12/11 14:48:45;;;;;;;8.70;4.22;;;;;;;;;;4754128;30;20052;-70
2022/12/11 14:51:14;;;;;;;7.38;3.72;;;;;;;;;;4754055;30;20139;-70
2022/12/11 14:53:43;;;;;;;13.93;6.65;;;;;;;;;;4754589;30;20047;-70
2022/12/11 14:56:15;;;;;;;14.93;7.00;;;;;;;;;;4754624;30;20059;-70
2022/12/11 14:58:43;;;;;;;28.17;11.35;;;;;;;;;;4754961;30;20044;-70